Time;durP1;ratioP1;P1;durP2;ratioP2;P2;SDS_P1;SDS_P2;PMS_P1;PMS_P2;Temp;Humidity;BMP_temperature;BMP_pressure;BME280_temperature;BME280_humidity;BME280_pressure;Samples;Min_cycle;Max_cycle;Signal;HPM_P1;HPM_P2
2022/12/29 00:01:14;;;;;;;4.90;4.50;;;9.90;99.90;;;;;;4978077;28;20029;-82
2022/12/29 00:03:46;;;;;;;7.60;4.80;;;10.20;99.90;;;;;;4996191;28;20050;-84
2022/12/29 00:06:11;;;;;;;5.30;4.80;;;9.90;99.90;;;;;;4988971;28;20050;-83
2022/12/29 00:08:53;;;;;;;5.20;4.70;;;10.00;99.90;;;;;;4972086;28;20054;-82
2022/12/29 00:11:21;;;;;;;5.97;4.97;;;10.20;99.90;;;;;;4993766;28;20479;-80
2022/12/29 00:16:32;;;;;;;6.25;4.68;;;10.00;99.90;;;;;;4997027;28;20104;-82
2022/12/29 00:18:58;;;;;;;7.25;4.70;;;10.00;99.90;;;;;;4983943;28;20042;-80
2022/12/29 00:35:12;;;;;;;5.07;4.20;;;10.00;99.90;;;;;;4999159;28;20141;-81
2022/12/29 00:45:56;;;;;;;6.68;4.60;;;10.40;99.90;;;;;;5010052;28;20127;-80
2022/12/29 00:51:08;;;;;;;7.32;4.60;;;10.50;99.90;;;;;;5013880;28;20050;-80
2022/12/29 00:53:33;;;;;;;6.45;4.15;;;10.10;99.90;;;;;;5076397;28;20037;-82
2022/12/29 00:56:00;;;;;;;4.78;4.35;;;10.40;99.90;;;;;;5047419;28;20057;-79
2022/12/29 00:58:29;;;;;;;6.18;3.85;;;10.20;99.90;;;;;;5063687;28;20052;-81
2022/12/29 01:01:07;;;;;;;6.40;4.05;;;10.20;99.90;;;;;;5066659;28;20105;-80
2022/12/29 01:03:34;;;;;;;5.68;4.22;;;10.60;99.90;;;;;;5031710;28;20151;-81
2022/12/29 01:06:07;;;;;;;5.97;4.30;;;10.30;99.90;;;;;;5003135;28;20091;-80
2022/12/29 01:08:34;;;;;;;4.72;4.32;;;10.20;99.90;;;;;;5015570;28;20124;-81
2022/12/29 01:11:02;;;;;;;6.03;4.50;;;10.20;99.90;;;;;;5020816;28;20048;-79
2022/12/29 01:13:28;;;;;;;4.93;3.95;;;10.50;99.90;;;;;;5064456;28;20061;-82
2022/12/29 01:15:54;;;;;;;6.88;4.22;;;10.70;99.90;;;;;;5037403;28;20447;-81
2022/12/29 01:18:21;;;;;;;5.93;4.40;;;10.30;99.90;;;;;;5035215;28;20033;-83
2022/12/29 01:20:47;;;;;;;7.30;4.22;;;10.40;99.90;;;;;;5048886;28;20045;-83
2022/12/29 01:23:13;;;;;;;5.50;4.00;;;10.70;99.90;;;;;;5038989;28;20456;-83
2022/12/29 01:25:39;;;;;;;5.72;3.90;;;10.60;99.90;;;;;;5051785;28;20186;-80
2022/12/29 01:28:08;;;;;;;6.32;4.47;;;10.30;99.90;;;;;;5016343;28;20037;-82
2022/12/29 01:30:36;;;;;;;6.15;4.25;;;10.30;99.90;;;;;;5076731;28;20076;-80
2022/12/29 01:33:01;;;;;;;7.03;4.25;;;10.40;99.90;;;;;;5070549;28;20049;-82
2022/12/29 01:35:27;;;;;;;5.82;4.10;;;10.20;99.90;;;;;;5035184;28;20055;-81
2022/12/29 01:37:53;;;;;;;5.32;4.25;;;10.40;99.90;;;;;;5052447;28;20364;-83
2022/12/29 01:40:19;;;;;;;5.35;4.10;;;10.50;99.90;;;;;;5039327;28;20037;-84
2022/12/29 01:42:45;;;;;;;5.60;3.95;;;10.10;99.90;;;;;;5056269;28;20049;-81
2022/12/29 01:45:13;;;;;;;5.57;4.53;;;10.30;99.90;;;;;;5048025;28;20051;-81
2022/12/29 01:47:50;;;;;;;9.13;4.63;;;10.50;99.90;;;;;;5038397;28;20158;-82
2022/12/29 01:50:25;;;;;;;6.75;4.55;;;10.50;99.90;;;;;;5042455;28;20049;-83
2022/12/29 01:53:11;;;;;;;5.80;4.63;;;10.50;99.90;;;;;;5039972;28;20045;-85
2022/12/29 01:55:44;;;;;;;7.93;4.60;;;10.40;99.90;;;;;;5034646;28;20050;-82
2022/12/29 01:58:12;;;;;;;6.05;5.20;;;10.00;99.90;;;;;;5054461;28;20045;-81
2022/12/29 02:00:38;;;;;;;8.18;5.60;;;10.30;99.90;;;;;;5021802;28;20088;-82
2022/12/29 02:03:06;;;;;;;9.27;5.82;;;10.10;99.90;;;;;;5038918;28;20141;-81
2022/12/29 02:05:44;;;;;;;9.05;5.70;;;10.40;99.90;;;;;;5054517;28;20134;-81
2022/12/29 02:08:49;;;;;;;7.88;5.43;;;10.00;99.90;;;;;;5036440;28;20056;-84
2022/12/29 02:11:16;;;;;;;7.38;5.03;;;9.90;99.90;;;;;;5049570;28;20040;-82
2022/12/29 02:13:42;;;;;;;6.20;4.80;;;10.20;99.90;;;;;;5016562;28;20044;-81
2022/12/29 02:16:47;;;;;;;5.20;4.10;;;10.30;99.90;;;;;;5012780;28;20049;-84
2022/12/29 02:19:59;;;;;;;4.82;3.83;;;10.40;99.90;;;;;;4972609;28;20289;-83
2022/12/29 02:22:31;;;;;;;7.80;3.60;;;10.30;99.90;;;;;;4895264;29;20048;-83
2022/12/29 02:25:02;;;;;;;4.20;3.40;;;10.10;99.90;;;;;;4880852;29;20053;-81
2022/12/29 02:28:06;;;;;;;4.00;2.88;;;10.00;99.90;;;;;;4911725;29;20108;-82
2022/12/29 02:31:07;;;;;;;5.68;3.33;;;10.40;99.90;;;;;;4825024;29;20086;-83
2022/12/29 02:33:38;;;;;;;4.20;3.03;;;10.30;99.90;;;;;;4840777;29;20694;-83
2022/12/29 02:36:39;;;;;;;5.20;2.80;;;10.30;99.90;;;;;;4847463;29;20057;-80
2022/12/29 02:39:33;;;;;;;4.05;2.72;;;10.50;99.90;;;;;;4825465;29;20528;-83
2022/12/29 02:42:17;;;;;;;3.63;2.83;;;10.70;99.90;;;;;;4825077;29;20062;-82
2022/12/29 02:44:52;;;;;;;3.27;2.60;;;10.20;99.90;;;;;;4831640;29;20069;-82
2022/12/29 02:47:41;;;;;;;5.10;2.65;;;10.40;99.90;;;;;;4834425;29;20089;-80
2022/12/29 02:50:15;;;;;;;4.68;2.75;;;10.20;99.90;;;;;;4806748;29;20066;-81
2022/12/29 02:53:04;;;;;;;3.83;2.45;;;10.40;99.90;;;;;;4803939;29;20768;-78
2022/12/29 02:55:30;;;;;;;3.97;2.38;;;10.30;99.90;;;;;;4854196;29;20136;-82
2022/12/29 02:58:19;;;;;;;4.32;2.55;;;10.40;99.90;;;;;;4914350;29;20135;-81
2022/12/29 03:01:18;;;;;;;4.50;2.30;;;10.20;99.90;;;;;;4952718;28;20073;-82
2022/12/29 03:04:01;;;;;;;3.45;2.10;;;10.40;99.90;;;;;;4951389;29;20058;-82
2022/12/29 03:06:56;;;;;;;5.22;2.47;;;10.50;99.90;;;;;;4927712;29;20051;-81
2022/12/29 03:09:52;;;;;;;3.80;2.15;;;10.40;99.90;;;;;;5027860;28;20057;-80
2022/12/29 03:18:34;;;;;;;5.15;2.00;;;10.30;99.90;;;;;;5053250;28;20429;-81
2022/12/29 03:21:12;;;;;;;2.38;1.90;;;10.40;99.90;;;;;;5040135;28;20492;-81
2022/12/29 03:23:40;;;;;;;3.13;1.67;;;10.50;99.90;;;;;;5000478;28;20051;-81
2022/12/29 03:26:10;;;;;;;2.65;1.85;;;10.20;99.90;;;;;;5045105;28;20044;-83
2022/12/29 03:28:51;;;;;;;7.15;2.35;;;10.20;99.90;;;;;;5051457;28;20103;-80
2022/12/29 03:31:18;;;;;;;4.55;2.10;;;10.20;99.90;;;;;;5011977;28;20071;-81
2022/12/29 03:33:46;;;;;;;7.55;1.73;;;10.20;99.90;;;;;;5045100;28;20049;-82
2022/12/29 03:36:20;;;;;;;8.80;1.85;;;10.30;99.90;;;;;;5027695;28;20044;-81
2022/12/29 03:38:52;;;;;;;4.35;1.48;;;10.10;99.90;;;;;;5029558;28;21218;-82
2022/12/29 03:41:24;;;;;;;6.10;1.52;;;10.10;99.90;;;;;;5024818;28;20168;-83
2022/12/29 03:43:50;;;;;;;4.82;1.40;;;10.20;99.90;;;;;;5050595;28;20095;-83
2022/12/29 03:46:17;;;;;;;3.25;1.30;;;10.10;99.90;;;;;;5014598;28;20048;-80
2022/12/29 03:48:43;;;;;;;3.55;1.30;;;10.10;99.90;;;;;;5023959;28;20404;-81
2022/12/29 03:51:10;;;;;;;3.10;1.40;;;9.90;99.90;;;;;;5027302;28;20092;-80
2022/12/29 03:53:36;;;;;;;3.55;1.40;;;10.00;99.90;;;;;;5026370;28;20108;-80
2022/12/29 03:56:02;;;;;;;5.68;1.52;;;10.00;99.90;;;;;;5045432;28;20459;-84
2022/12/29 03:58:28;;;;;;;6.10;1.80;;;10.10;99.90;;;;;;5015836;28;20074;-81
2022/12/29 04:00:53;;;;;;;5.07;1.73;;;10.10;99.90;;;;;;5031050;28;20373;-85
2022/12/29 04:03:19;;;;;;;5.28;1.50;;;9.80;99.90;;;;;;5041490;28;20476;-84
2022/12/29 04:05:48;;;;;;;5.68;1.45;;;10.00;99.90;;;;;;5034057;28;20049;-80
2022/12/29 04:08:33;;;;;;;4.45;1.63;;;9.90;99.90;;;;;;5047554;28;20119;-84
2022/12/29 04:10:58;;;;;;;7.28;1.45;;;10.00;99.90;;;;;;5012679;28;20071;-81
2022/12/29 04:13:24;;;;;;;6.22;1.75;;;10.10;99.90;;;;;;5041828;28;20041;-84
2022/12/29 04:15:50;;;;;;;4.88;1.80;;;9.90;99.90;;;;;;5014074;28;20515;-82
2022/12/29 04:18:16;;;;;;;6.35;1.42;;;10.10;99.90;;;;;;5063836;28;20473;-84
2022/12/29 04:20:59;;;;;;;5.65;1.50;;;10.10;99.90;;;;;;5034605;28;20033;-83
2022/12/29 04:23:26;;;;;;;9.13;1.50;;;10.00;99.90;;;;;;5039993;28;20128;-79
2022/12/29 04:25:53;;;;;;;4.57;1.20;;;9.90;99.90;;;;;;5057965;28;20071;-80
2022/12/29 04:28:19;;;;;;;5.38;1.35;;;9.90;99.90;;;;;;5064312;28;20515;-80
2022/12/29 04:30:45;;;;;;;4.50;1.20;;;10.10;99.90;;;;;;5067221;28;20075;-80
2022/12/29 04:33:11;;;;;;;5.72;1.20;;;10.00;99.90;;;;;;5038591;28;20037;-81
2022/12/29 04:35:37;;;;;;;13.63;1.50;;;10.00;99.90;;;;;;5029320;28;20128;-82
2022/12/29 04:38:03;;;;;;;5.82;1.27;;;10.10;99.90;;;;;;5040236;28;20119;-82
2022/12/29 04:40:29;;;;;;;5.88;1.30;;;9.90;99.90;;;;;;5027922;28;20045;-83
2022/12/29 04:42:55;;;;;;;8.27;1.13;;;9.90;99.90;;;;;;5027621;28;20173;-82
2022/12/29 04:45:21;;;;;;;8.77;1.50;;;10.00;99.90;;;;;;5047668;28;20029;-81
2022/12/29 04:47:47;;;;;;;12.13;1.65;;;9.90;99.90;;;;;;5039804;28;20140;-83
2022/12/29 04:50:13;;;;;;;9.23;1.40;;;9.90;99.90;;;;;;5026034;28;20068;-80
2022/12/29 04:52:38;;;;;;;8.55;1.80;;;9.90;99.90;;;;;;5035809;28;20213;-82
2022/12/29 04:55:23;;;;;;;7.50;1.30;;;9.80;99.90;;;;;;5036924;28;20091;-82
2022/12/29 04:57:48;;;;;;;7.32;1.20;;;9.90;99.90;;;;;;5035734;28;20533;-81
2022/12/29 05:00:14;;;;;;;5.18;1.33;;;9.80;99.90;;;;;;5035278;28;20033;-81
2022/12/29 05:02:40;;;;;;;12.07;1.65;;;9.80;99.90;;;;;;5019418;28;20099;-83
2022/12/29 05:05:06;;;;;;;6.88;1.50;;;9.70;99.90;;;;;;5036493;28;20033;-81
2022/12/29 05:07:33;;;;;;;7.93;1.52;;;9.60;99.90;;;;;;5037728;28;20393;-82
2022/12/29 05:10:17;;;;;;;9.20;1.75;;;9.50;99.90;;;;;;5030688;28;20045;-81
2022/12/29 05:12:43;;;;;;;12.10;2.10;;;9.60;99.90;;;;;;5062091;28;20043;-80
2022/12/29 05:15:10;;;;;;;10.95;2.20;;;9.50;99.90;;;;;;5036525;28;20049;-81
2022/12/29 05:17:36;;;;;;;9.93;1.98;;;9.60;99.90;;;;;;5052726;28;20037;-82
2022/12/29 05:20:05;;;;;;;13.38;1.70;;;9.50;99.90;;;;;;5053651;28;20029;-81
2022/12/29 05:22:30;;;;;;;13.43;2.13;;;9.40;99.90;;;;;;5038796;28;20475;-82
2022/12/29 05:25:15;;;;;;;13.75;2.20;;;9.40;99.90;;;;;;5061943;28;20041;-81
2022/12/29 05:27:40;;;;;;;9.70;2.08;;;9.40;99.90;;;;;;5037572;28;20460;-84
2022/12/29 05:30:07;;;;;;;13.35;2.08;;;9.30;99.90;;;;;;5052416;28;20176;-83
2022/12/29 05:32:32;;;;;;;13.07;1.90;;;9.20;99.90;;;;;;5047101;28;20144;-82
2022/12/29 05:34:58;;;;;;;9.10;1.67;;;9.40;99.90;;;;;;5011504;28;20094;-81
2022/12/29 05:37:23;;;;;;;12.98;2.13;;;9.30;99.90;;;;;;5032245;28;20049;-83
2022/12/29 05:39:49;;;;;;;13.07;2.05;;;9.40;99.90;;;;;;5048434;28;20049;-82
2022/12/29 05:42:15;;;;;;;12.45;2.00;;;9.20;99.90;;;;;;5032181;28;20033;-81
2022/12/29 05:44:41;;;;;;;14.00;2.45;;;9.20;99.90;;;;;;5034012;28;20076;-83
2022/12/29 05:47:07;;;;;;;12.15;1.90;;;9.20;99.90;;;;;;5049661;28;20053;-82
2022/12/29 05:49:32;;;;;;;10.50;2.50;;;9.20;99.90;;;;;;5040342;28;20114;-83
2022/12/29 05:51:58;;;;;;;14.07;2.45;;;9.20;99.90;;;;;;5020162;28;20048;-82
2022/12/29 05:55:02;;;;;;;13.15;2.13;;;9.30;99.90;;;;;;5035874;28;20037;-85
2022/12/29 05:57:28;;;;;;;13.52;2.10;;;9.20;99.90;;;;;;5022856;28;20480;-84
2022/12/29 05:59:54;;;;;;;13.32;2.05;;;9.30;99.90;;;;;;5070163;28;20035;-82
2022/12/29 06:02:20;;;;;;;15.23;2.42;;;9.30;99.90;;;;;;5071984;28;20403;-82
2022/12/29 06:04:45;;;;;;;17.08;2.55;;;9.30;99.90;;;;;;5081800;28;20500;-84
2022/12/29 06:07:11;;;;;;;16.88;2.47;;;9.30;99.90;;;;;;5066597;28;20140;-82
2022/12/29 06:09:55;;;;;;;17.10;2.47;;;9.30;99.90;;;;;;5053404;28;20581;-84
2022/12/29 06:12:21;;;;;;;14.32;2.40;;;9.40;99.90;;;;;;5034640;28;20059;-81
2022/12/29 06:14:46;;;;;;;14.93;2.42;;;9.40;99.90;;;;;;5020626;28;20049;-82
2022/12/29 06:17:12;;;;;;;15.63;2.40;;;9.40;99.90;;;;;;5047637;28;20048;-82
2022/12/29 06:19:38;;;;;;;19.20;2.33;;;9.40;99.90;;;;;;5019129;28;20037;-82
2022/12/29 06:22:04;;;;;;;14.63;2.83;;;9.40;99.90;;;;;;5026856;28;20048;-82
2022/12/29 06:24:30;;;;;;;17.65;2.50;;;9.50;99.90;;;;;;5047610;28;20056;-81
2022/12/29 06:26:56;;;;;;;13.15;2.10;;;9.50;99.90;;;;;;5014689;28;20121;-85
2022/12/29 06:29:21;;;;;;;15.95;2.90;;;9.30;99.90;;;;;;5036357;28;20074;-83
2022/12/29 06:31:50;;;;;;;10.88;2.28;;;9.40;99.90;;;;;;5055050;28;20078;-83
2022/12/29 06:34:16;;;;;;;13.93;2.60;;;9.30;99.90;;;;;;5058085;28;20080;-83
2022/12/29 06:36:42;;;;;;;17.65;2.60;;;9.30;99.90;;;;;;5026655;28;20045;-81
2022/12/29 06:39:08;;;;;;;19.20;3.10;;;9.20;99.90;;;;;;5050049;28;20033;-82
2022/12/29 06:41:33;;;;;;;21.60;2.67;;;9.30;99.90;;;;;;5034511;28;20036;-78
2022/12/29 06:43:59;;;;;;;20.85;3.35;;;9.20;99.90;;;;;;5062390;28;20045;-81
2022/12/29 06:46:25;;;;;;;22.45;2.80;;;9.20;99.90;;;;;;5009530;28;20044;-81
2022/12/29 06:48:51;;;;;;;13.02;2.45;;;9.10;99.90;;;;;;5044355;28;20056;-84
2022/12/29 06:51:17;;;;;;;16.33;2.38;;;9.20;99.90;;;;;;5036435;28;20044;-83
2022/12/29 06:53:42;;;;;;;18.08;2.75;;;9.10;99.90;;;;;;5042217;28;20419;-84
2022/12/29 06:56:08;;;;;;;18.90;2.80;;;9.20;99.90;;;;;;5026902;28;20091;-83
2022/12/29 06:58:34;;;;;;;17.85;2.72;;;9.10;99.90;;;;;;5031320;28;20044;-83
2022/12/29 07:00:59;;;;;;;19.80;2.95;;;9.10;99.90;;;;;;5011749;28;20449;-82
2022/12/29 07:03:25;;;;;;;20.70;2.90;;;9.20;99.90;;;;;;5016717;28;20044;-84
2022/12/29 07:05:51;;;;;;;20.98;2.80;;;9.10;99.90;;;;;;5027988;28;20036;-82
2022/12/29 07:08:18;;;;;;;20.15;2.92;;;9.10;99.90;;;;;;5048025;28;20044;-82
2022/12/29 07:10:44;;;;;;;16.25;2.55;;;9.10;99.90;;;;;;5028117;28;20067;-81
2022/12/29 07:13:09;;;;;;;19.23;2.92;;;9.20;99.90;;;;;;5017019;28;20475;-83
2022/12/29 07:15:37;;;;;;;25.38;3.30;;;9.20;99.90;;;;;;5038216;28;20037;-79
2022/12/29 07:18:03;;;;;;;14.82;2.38;;;8.90;99.90;;;;;;5032782;28;20399;-81
2022/12/29 07:20:29;;;;;;;19.60;2.95;;;9.30;99.90;;;;;;5062381;28;20136;-82
2022/12/29 07:22:55;;;;;;;23.75;3.00;;;9.20;99.90;;;;;;5003527;28;20257;-81
2022/12/29 07:25:21;;;;;;;18.60;2.97;;;9.20;99.90;;;;;;4989642;28;20144;-80
2022/12/29 07:27:48;;;;;;;16.25;2.90;;;9.40;99.90;;;;;;4986200;28;20049;-83
2022/12/29 07:30:14;;;;;;;20.88;3.00;;;9.20;99.90;;;;;;5003867;28;20092;-81
2022/12/29 07:32:40;;;;;;;17.92;2.85;;;9.30;99.90;;;;;;5001245;28;20472;-83
2022/12/29 07:35:06;;;;;;;18.83;3.38;;;9.30;99.90;;;;;;5005447;28;20099;-82
2022/12/29 07:37:31;;;;;;;17.95;2.92;;;9.40;99.90;;;;;;5003624;28;20124;-82
2022/12/29 07:39:57;;;;;;;26.60;3.17;;;9.40;99.90;;;;;;5022309;28;20033;-81
2022/12/29 07:42:23;;;;;;;21.05;2.85;;;9.40;99.90;;;;;;5017727;28;20057;-81
2022/12/29 07:44:48;;;;;;;15.88;2.58;;;9.40;99.90;;;;;;4989424;28;20516;-81
2022/12/29 07:47:14;;;;;;;15.65;2.42;;;9.50;99.90;;;;;;5002990;28;20077;-80
2022/12/29 07:49:40;;;;;;;16.05;2.90;;;9.50;99.90;;;;;;5005122;28;20527;-82
2022/12/29 07:52:06;;;;;;;16.77;2.80;;;9.40;99.90;;;;;;4995432;28;20068;-81
2022/12/29 07:54:32;;;;;;;18.10;3.22;;;9.40;99.90;;;;;;5026763;28;20160;-79
2022/12/29 07:56:59;;;;;;;18.85;2.85;;;9.50;99.90;;;;;;5045137;28;20131;-79
2022/12/29 07:59:26;;;;;;;28.05;3.03;;;9.40;99.90;;;;;;5016914;28;20499;-80
2022/12/29 08:01:51;;;;;;;15.05;2.45;;;9.50;99.90;;;;;;5007796;28;20045;-79
2022/12/29 08:04:17;;;;;;;16.45;2.78;;;9.40;99.90;;;;;;5027013;28;20045;-81
2022/12/29 08:06:45;;;;;;;18.10;2.85;;;9.40;99.90;;;;;;5028684;28;20040;-80
2022/12/29 08:09:11;;;;;;;19.88;3.10;;;9.30;99.90;;;;;;5046776;28;20076;-82
2022/12/29 08:11:36;;;;;;;17.65;3.03;;;9.30;99.90;;;;;;5028236;28;20092;-81
2022/12/29 08:14:03;;;;;;;14.63;2.72;;;9.40;99.90;;;;;;5029606;28;20068;-79
2022/12/29 08:16:28;;;;;;;17.00;2.85;;;9.40;99.90;;;;;;5051061;28;20055;-82
2022/12/29 08:18:54;;;;;;;22.48;3.05;;;9.40;99.90;;;;;;5040849;28;20128;-81
2022/12/29 08:21:20;;;;;;;26.05;3.63;;;9.40;99.90;;;;;;5045777;28;20399;-83
2022/12/29 08:24:05;;;;;;;20.85;3.63;;;9.40;99.90;;;;;;5015790;28;20071;-83
2022/12/29 08:26:31;;;;;;;23.42;3.60;;;9.30;99.90;;;;;;5029346;28;20063;-82
2022/12/29 08:28:57;;;;;;;21.98;3.70;;;9.30;99.90;;;;;;5029625;28;20061;-85
2022/12/29 08:31:23;;;;;;;24.52;3.53;;;9.40;99.90;;;;;;5030534;28;20087;-83
2022/12/29 08:33:50;;;;;;;25.30;3.20;;;9.30;99.90;;;;;;5041873;28;20107;-80
2022/12/29 08:36:15;;;;;;;20.20;3.53;;;9.40;99.90;;;;;;5006923;28;20128;-80
2022/12/29 08:38:41;;;;;;;23.95;2.97;;;9.30;99.90;;;;;;5023810;28;20164;-78
2022/12/29 08:41:07;;;;;;;15.68;2.78;;;9.30;99.90;;;;;;5008324;28;20041;-82
2022/12/29 08:43:36;;;;;;;25.38;3.60;;;9.10;99.90;;;;;;5026924;28;20055;-80
2022/12/29 08:46:01;;;;;;;21.90;3.10;;;9.20;99.90;;;;;;5024325;28;20033;-79
2022/12/29 08:48:27;;;;;;;28.17;3.58;;;9.20;99.90;;;;;;5064520;28;20512;-79
2022/12/29 08:50:53;;;;;;;28.60;4.07;;;9.20;99.90;;;;;;5032181;28;20117;-81
2022/12/29 08:53:19;;;;;;;25.75;3.65;;;9.10;99.90;;;;;;5067374;28;20051;-78
2022/12/29 08:56:03;;;;;;;28.98;3.92;;;9.00;99.90;;;;;;5033503;28;20167;-80
2022/12/29 08:58:30;;;;;;;29.70;3.92;;;9.20;99.90;;;;;;5034360;28;20076;-81
2022/12/29 09:00:57;;;;;;;19.02;3.38;;;9.20;99.90;;;;;;5038648;28;20038;-82
2022/12/29 09:03:24;;;;;;;33.40;3.95;;;9.10;99.90;;;;;;5031463;28;20185;-78
2022/12/29 09:05:51;;;;;;;29.13;3.88;;;9.10;99.90;;;;;;5038960;28;20193;-80
2022/12/29 09:08:17;;;;;;;30.48;3.83;;;9.20;99.90;;;;;;5061563;28;20056;-81
2022/12/29 09:10:43;;;;;;;23.63;3.70;;;9.00;99.90;;;;;;5016978;28;20060;-81
2022/12/29 09:13:10;;;;;;;27.63;3.88;;;9.20;99.90;;;;;;5028711;28;20118;-80
2022/12/29 09:15:36;;;;;;;28.98;3.90;;;9.10;99.90;;;;;;5062175;28;20053;-80
2022/12/29 09:18:03;;;;;;;33.03;3.85;;;9.20;99.90;;;;;;5020580;28;20114;-79
2022/12/29 09:20:29;;;;;;;28.20;3.80;;;9.20;99.90;;;;;;5046984;28;20107;-79
2022/12/29 09:22:55;;;;;;;31.08;4.15;;;9.10;99.90;;;;;;5045343;28;20037;-79
2022/12/29 09:25:24;;;;;;;32.60;4.28;;;9.30;99.90;;;;;;5021896;28;20128;-79
2022/12/29 09:27:52;;;;;;;33.42;4.50;;;9.10;99.90;;;;;;5066554;28;20508;-80
2022/12/29 09:30:19;;;;;;;26.00;4.13;;;9.30;99.90;;;;;;5042812;28;20166;-79
2022/12/29 09:32:44;;;;;;;34.70;4.60;;;9.30;99.90;;;;;;5066297;28;20110;-80
2022/12/29 09:35:11;;;;;;;29.17;5.22;;;9.20;99.90;;;;;;5036073;28;20388;-82
2022/12/29 09:37:37;;;;;;;35.15;4.47;;;9.20;99.90;;;;;;5013907;28;20152;-80
2022/12/29 09:40:04;;;;;;;19.60;3.35;;;9.20;99.90;;;;;;5030785;28;20536;-80
2022/12/29 09:43:18;;;;;;;20.45;3.53;;;9.20;99.90;;;;;;5031888;28;20468;-80
2022/12/29 09:46:07;;;;;;;28.45;4.00;;;9.10;99.90;;;;;;5002514;28;20127;-80
2022/12/29 09:48:41;;;;;;;25.08;3.53;;;9.10;99.90;;;;;;5026514;28;20106;-79
2022/12/29 09:51:21;;;;;;;22.17;3.60;;;9.20;99.90;;;;;;5028964;28;20101;-79
2022/12/29 09:54:34;;;;;;;21.55;3.15;;;9.00;99.90;;;;;;5043815;28;20167;-80
2022/12/29 09:57:01;;;;;;;25.38;3.22;;;9.30;99.90;;;;;;4971870;28;20137;-80
2022/12/29 09:59:41;;;;;;;21.80;3.15;;;9.20;99.90;;;;;;4965416;28;20049;-78
2022/12/29 10:02:28;;;;;;;21.38;3.42;;;9.20;99.90;;;;;;5005175;28;20046;-81
2022/12/29 10:04:53;;;;;;;19.05;3.30;;;9.20;99.90;;;;;;4984309;28;20046;-78
2022/12/29 10:07:37;;;;;;;21.77;3.22;;;9.20;99.90;;;;;;4980328;28;20498;-78
2022/12/29 10:10:20;;;;;;;18.92;3.10;;;9.00;99.90;;;;;;4999623;28;20149;-80
2022/12/29 10:13:09;;;;;;;21.75;3.05;;;9.00;99.90;;;;;;4970049;28;20050;-78
2022/12/29 10:15:46;;;;;;;18.63;2.95;;;9.10;99.90;;;;;;4970929;28;20130;-79
2022/12/29 10:18:18;;;;;;;25.55;3.50;;;8.90;99.90;;;;;;4999456;28;20047;-79
2022/12/29 10:21:17;;;;;;;23.45;3.60;;;9.00;99.90;;;;;;5006667;28;20053;-80
2022/12/29 10:23:46;;;;;;;13.75;2.33;;;8.60;99.90;;;;;;4984196;28;20046;-79
2022/12/29 10:26:21;;;;;;;15.27;2.83;;;8.90;99.90;;;;;;5005000;28;20069;-80
2022/12/29 10:28:59;;;;;;;19.92;2.90;;;8.80;99.90;;;;;;5014544;28;20076;-80
2022/12/29 10:31:33;;;;;;;20.52;2.90;;;8.70;99.90;;;;;;5029418;28;20103;-79
2022/12/29 10:34:03;;;;;;;19.65;3.00;;;8.60;99.90;;;;;;5043953;28;20135;-78
2022/12/29 10:36:41;;;;;;;21.17;3.10;;;8.90;99.90;;;;;;5051857;28;20060;-80
2022/12/29 10:39:34;;;;;;;19.17;3.20;;;8.70;99.90;;;;;;5031349;28;20041;-78
2022/12/29 10:42:26;;;;;;;16.52;2.85;;;8.90;99.90;;;;;;5012043;28;20053;-81
2022/12/29 10:44:53;;;;;;;23.77;3.72;;;8.90;99.90;;;;;;5027971;28;20045;-79
2022/12/29 10:47:24;;;;;;;18.25;3.05;;;8.80;99.90;;;;;;5029229;28;20171;-79
2022/12/29 10:49:51;;;;;;;19.20;3.17;;;8.70;99.90;;;;;;5027738;28;20088;-77
2022/12/29 10:52:20;;;;;;;21.33;3.53;;;9.00;99.90;;;;;;4996303;28;20492;-80
2022/12/29 10:55:05;;;;;;;22.35;3.72;;;9.10;99.90;;;;;;5044069;28;20044;-79
2022/12/29 10:57:35;;;;;;;21.05;3.50;;;8.90;99.90;;;;;;5053063;28;21681;-77
2022/12/29 11:00:01;;;;;;;27.23;4.10;;;8.90;99.90;;;;;;5032438;28;20049;-79
2022/12/29 11:02:32;;;;;;;26.20;3.95;;;9.10;99.90;;;;;;5040512;28;20036;-78
2022/12/29 11:05:07;;;;;;;28.33;4.05;;;9.10;99.90;;;;;;5059661;28;20094;-80
2022/12/29 11:07:33;;;;;;;28.38;4.25;;;9.30;99.90;;;;;;5032802;28;20045;-79
2022/12/29 11:13:48;;;;;;;21.48;3.60;;;9.20;99.90;;;;;;5059245;28;20047;-78
2022/12/29 11:16:14;;;;;;;34.42;3.90;;;9.20;99.90;;;;;;5044058;28;20033;-80
2022/12/29 11:18:42;;;;;;;28.33;4.15;;;9.30;99.90;;;;;;5058704;28;20419;-79
2022/12/29 11:21:29;;;;;;;33.20;5.03;;;9.10;99.90;;;;;;5033333;28;20068;-82
2022/12/29 11:23:58;;;;;;;27.23;4.32;;;9.20;99.90;;;;;;5044782;28;20434;-81
2022/12/29 11:26:25;;;;;;;36.35;5.07;;;9.10;99.90;;;;;;5025818;28;20147;-81
2022/12/29 11:29:11;;;;;;;30.15;4.47;;;9.20;99.90;;;;;;5047966;28;20102;-79
2022/12/29 11:31:45;;;;;;;32.70;4.70;;;9.30;99.90;;;;;;5022915;28;20047;-80
2022/12/29 11:34:34;;;;;;;28.40;4.00;;;9.50;99.90;;;;;;5033804;28;20459;-80
2022/12/29 11:37:17;;;;;;;33.25;4.95;;;9.50;99.90;;;;;;5046389;28;20061;-80
2022/12/29 11:40:07;;;;;;;31.88;4.28;;;9.50;99.90;;;;;;5043512;28;20043;-81
2022/12/29 11:42:51;;;;;;;32.42;4.32;;;9.40;99.90;;;;;;5039621;28;20088;-80
2022/12/29 11:45:26;;;;;;;32.40;4.43;;;9.50;99.90;;;;;;5017696;28;20064;-82
2022/12/29 11:48:13;;;;;;;30.67;4.43;;;9.60;99.90;;;;;;5028651;28;20056;-83
2022/12/29 11:50:42;;;;;;;32.63;4.93;;;9.50;99.90;;;;;;5033565;28;20059;-81
2022/12/29 11:53:28;;;;;;;26.27;3.70;;;9.50;99.90;;;;;;5011092;28;20489;-80
2022/12/29 11:55:55;;;;;;;26.92;4.20;;;9.50;99.90;;;;;;5020056;28;20048;-79
2022/12/29 11:58:29;;;;;;;35.10;4.50;;;9.40;99.90;;;;;;5050150;28;20207;-81
2022/12/29 12:00:57;;;;;;;30.80;4.55;;;9.40;99.90;;;;;;5032721;28;20048;-80
2022/12/29 12:03:25;;;;;;;29.85;4.10;;;9.30;99.90;;;;;;5058991;28;20056;-80
2022/12/29 12:05:55;;;;;;;23.00;3.72;;;9.30;99.90;;;;;;5007861;28;20603;-81
2022/12/29 12:08:41;;;;;;;25.27;4.55;;;9.30;99.90;;;;;;5007450;28;20068;-78
2022/12/29 12:11:12;;;;;;;33.28;4.97;;;9.30;99.90;;;;;;5031120;28;20409;-78
2022/12/29 12:13:44;;;;;;;33.60;5.03;;;9.30;99.90;;;;;;5027449;28;20059;-80
2022/12/29 12:16:15;;;;;;;30.52;5.00;;;9.50;99.90;;;;;;5032203;28;20197;-80
2022/12/29 12:18:54;;;;;;;30.77;4.20;;;9.60;99.90;;;;;;5053183;28;20051;-81
2022/12/29 12:21:39;;;;;;;31.05;4.28;;;9.50;99.90;;;;;;5067188;28;20040;-81
2022/12/29 12:24:08;;;;;;;28.95;4.25;;;9.70;99.90;;;;;;5025752;28;20037;-81
2022/12/29 12:26:44;;;;;;;40.53;5.07;;;9.50;99.90;;;;;;5023558;28;20435;-79
2022/12/29 12:29:19;;;;;;;29.27;3.95;;;9.50;99.90;;;;;;5042195;28;20040;-81
2022/12/29 12:31:57;;;;;;;32.58;4.22;;;9.60;99.90;;;;;;5055273;28;20364;-78
2022/12/29 12:34:41;;;;;;;26.63;4.18;;;9.60;99.90;;;;;;5055584;28;21049;-79
2022/12/29 12:37:34;;;;;;;23.95;3.40;;;9.50;99.90;;;;;;5025137;28;20499;-82
2022/12/29 12:40:25;;;;;;;24.73;3.13;;;9.40;99.90;;;;;;5039697;28;20094;-79
2022/12/29 12:43:15;;;;;;;22.67;3.55;;;9.40;99.90;;;;;;5031915;28;20044;-80
2022/12/29 12:45:58;;;;;;;22.95;3.28;;;9.40;99.90;;;;;;5009206;28;20041;-79
2022/12/29 12:48:24;;;;;;;27.65;4.05;;;9.50;99.90;;;;;;5025850;28;20057;-78
2022/12/29 12:51:01;;;;;;;31.33;4.60;;;9.40;99.90;;;;;;5059244;28;20051;-80
2022/12/29 12:53:33;;;;;;;20.10;3.35;;;9.30;99.90;;;;;;5015217;28;20044;-79
2022/12/29 12:56:20;;;;;;;20.90;3.70;;;9.40;99.90;;;;;;5028984;28;20053;-79
2022/12/29 12:58:58;;;;;;;24.85;3.65;;;9.40;99.90;;;;;;5053348;28;20049;-78
2022/12/29 13:01:38;;;;;;;19.67;3.15;;;9.50;99.90;;;;;;5038644;28;20131;-78
2022/12/29 13:04:30;;;;;;;22.60;3.17;;;9.40;99.90;;;;;;5058829;28;20045;-77
2022/12/29 13:07:26;;;;;;;17.52;3.05;;;9.40;99.90;;;;;;5031098;28;20107;-78
2022/12/29 13:10:13;;;;;;;17.42;2.63;;;9.30;99.90;;;;;;5052863;28;20126;-79
2022/12/29 13:12:51;;;;;;;18.40;2.70;;;9.20;99.90;;;;;;5047960;28;20103;-79
2022/12/29 13:15:35;;;;;;;13.90;2.53;;;9.20;99.90;;;;;;5035908;28;20132;-79
2022/12/29 13:18:07;;;;;;;18.27;2.40;;;9.10;99.90;;;;;;5039332;28;20476;-80
2022/12/29 13:20:39;;;;;;;17.08;2.17;;;9.10;99.90;;;;;;5065983;28;20087;-78
2022/12/29 13:23:39;;;;;;;13.48;2.28;;;9.00;99.90;;;;;;5036018;28;20045;-78
2022/12/29 13:26:32;;;;;;;16.77;2.58;;;9.10;99.90;;;;;;5014702;28;20481;-78
2022/12/29 13:29:26;;;;;;;14.85;2.22;;;9.10;99.90;;;;;;5032616;28;20064;-77
2022/12/29 13:32:06;;;;;;;22.52;2.58;;;9.00;99.90;;;;;;5038893;28;20053;-78
2022/12/29 13:34:59;;;;;;;15.55;2.60;;;8.90;99.90;;;;;;5067973;28;20106;-79
2022/12/29 13:37:29;;;;;;;24.48;2.90;;;8.90;99.90;;;;;;5018876;28;20052;-79
2022/12/29 13:40:09;;;;;;;12.82;2.20;;;8.80;99.90;;;;;;5053540;28;20124;-78
2022/12/29 13:42:35;;;;;;;17.88;2.85;;;8.90;99.90;;;;;;5028733;28;20455;-79
2022/12/29 13:45:06;;;;;;;15.40;2.15;;;9.00;99.90;;;;;;5028694;28;20032;-81
2022/12/29 13:47:39;;;;;;;15.43;2.42;;;8.90;99.90;;;;;;5035022;28;20052;-79
2022/12/29 13:50:16;;;;;;;17.30;2.40;;;9.00;99.90;;;;;;5041177;28;20061;-78
2022/12/29 13:53:19;;;;;;;15.90;2.40;;;9.00;99.90;;;;;;5015157;28;20083;-79